Time;durP1;ratioP1;P1;durP2;ratioP2;P2;SDS_P1;SDS_P2;PMS_P1;PMS_P2;Temp;Humidity;BMP_temperature;BMP_pressure;BME280_temperature;BME280_humidity;BME280_pressure;Samples;Min_cycle;Max_cycle;Signal;HPM_P1;HPM_P2
2024/02/08 00:01:59;;;;;;;;;;;;;;;25.19;20.08;97036.06;5103298;28;19973;-79
2024/02/08 00:04:25;;;;;;;;;;;;;;;24.92;20.37;97028.38;5111858;28;19934;-79
2024/02/08 00:06:51;;;;;;;;;;;;;;;24.58;20.82;97026.53;5105738;28;19920;-79
2024/02/08 00:09:17;;;;;;;;;;;;;;;24.42;21.03;97028.81;5105418;28;19920;-79
2024/02/08 00:11:43;;;;;;;;;;;;;;;24.42;21.02;97028.81;5098665;28;19955;-79
2024/02/08 00:14:09;;;;;;;;;;;;;;;24.74;20.66;97017.84;5097041;28;20018;-79
2024/02/08 00:16:37;;;;;;;;;;;;;;;25.06;20.32;97018.59;5104826;28;19930;-79
2024/02/08 00:19:03;;;;;;;;;;;;;;;25.25;20.15;97025.78;5097641;28;20479;-79
2024/02/08 00:21:31;;;;;;;;;;;;;;;25.36;20.07;97031.72;5112877;28;19963;-79
2024/02/08 00:23:57;;;;;;;;;;;;;;;25.01;20.17;97030.44;5083640;28;19920;-79
2024/02/08 00:26:23;;;;;;;;;;;;;;;24.89;20.42;97028.53;5110158;28;19989;-79
2024/02/08 00:28:49;;;;;;;;;;;;;;;25.07;20.17;97032.16;5112091;28;19966;-79
2024/02/08 00:31:15;;;;;;;;;;;;;;;25.49;19.90;97023.94;5101185;28;20014;-79
2024/02/08 00:33:41;;;;;;;;;;;;;;;25.42;19.72;97033.44;5099227;28;19920;-79
2024/02/08 00:36:10;;;;;;;;;;;;;;;25.59;19.83;97031.13;5106527;28;19927;-79
2024/02/08 00:38:37;;;;;;;;;;;;;;;25.66;19.63;97032.81;5094180;28;19920;-79
2024/02/08 00:41:03;;;;;;;;;;;;;;;25.74;19.58;97031.25;5081744;28;19920;-79
2024/02/08 00:43:29;;;;;;;;;;;;;;;25.75;19.58;97038.44;5001609;28;2699010;-79
2024/02/08 00:45:55;;;;;;;;;;;;;;;25.80;19.25;97032.19;5100254;28;19927;-79
2024/02/08 00:48:22;;;;;;;;;;;;;;;25.74;19.42;97034.06;5110091;27;19926;-79
2024/02/08 00:50:48;;;;;;;;;;;;;;;25.66;19.41;97035.63;5108593;28;20007;-79
2024/02/08 00:53:16;;;;;;;;;;;;;;;25.43;19.88;97031.41;5103031;27;19926;-79
2024/02/08 00:55:43;;;;;;;;;;;;;;;25.15;20.09;97038.25;5098816;27;20400;-79
2024/02/08 00:58:11;;;;;;;;;;;;;;;25.32;19.90;97040.28;5114349;28;19916;-79
2024/02/08 01:00:37;;;;;;;;;;;;;;;25.43;19.93;97037.03;5105813;28;19916;-80
2024/02/08 01:03:07;;;;;;;;;;;;;;;25.61;19.45;97036.25;5094114;28;20122;-79
2024/02/08 01:05:33;;;;;;;;;;;;;;;25.72;19.65;97036.59;5094547;28;20030;-79
2024/02/08 01:08:00;;;;;;;;;;;;;;;25.69;19.71;97037.50;5095563;28;20281;-79
2024/02/08 01:10:26;;;;;;;;;;;;;;;25.59;19.59;97038.75;5102801;28;19927;-79
2024/02/08 01:12:54;;;;;;;;;;;;;;;25.39;19.67;97039.97;5113905;28;19955;-79
2024/02/08 01:15:20;;;;;;;;;;;;;;;25.46;19.88;97038.16;5103190;28;19923;-79
2024/02/08 01:17:51;;;;;;;;;;;;;;;25.58;19.50;97037.97;5111218;27;20005;-79
2024/02/08 01:20:22;;;;;;;;;;;;;;;25.80;19.27;97037.81;5102327;28;19923;-79
2024/02/08 01:22:49;;;;;;;;;;;;;;;25.67;19.55;97025.97;5103067;27;19959;-79
2024/02/08 01:25:15;;;;;;;;;;;;;;;25.74;19.40;97029.22;5104517;27;19978;-79
2024/02/08 01:27:43;;;;;;;;;;;;;;;25.82;19.30;97029.69;5098288;27;19923;-79
2024/02/08 01:30:10;;;;;;;;;;;;;;;25.67;19.40;97032.34;5095868;27;19920;-79
2024/02/08 01:32:37;;;;;;;;;;;;;;;25.75;19.34;97024.38;5099936;28;19927;-79
2024/02/08 01:35:03;;;;;;;;;;;;;;;25.86;19.37;97024.66;5105152;27;19969;-79
2024/02/08 01:37:29;;;;;;;;;;;;;;;25.94;19.29;97020.28;5104839;28;20461;-79
2024/02/08 01:39:56;;;;;;;;;;;;;;;26.03;19.02;97018.22;5105008;27;19952;-79
2024/02/08 01:42:22;;;;;;;;;;;;;;;26.09;19.12;97013.50;5113863;27;19969;-79
2024/02/08 01:45:04;;;;;;;;;;;;;;;26.05;19.31;97009.31;5102532;28;20415;-79
2024/02/08 01:47:30;;;;;;;;;;;;;;;26.05;19.15;97009.31;5081407;28;19924;-79
2024/02/08 01:49:56;;;;;;;;;;;;;;;26.01;19.00;97014.31;5104588;28;19926;-80
2024/02/08 01:52:22;;;;;;;;;;;;;;;25.85;19.13;97011.88;5103088;27;20015;-80
2024/02/08 01:54:49;;;;;;;;;;;;;;;25.86;19.28;97008.56;5102338;27;19951;-80
2024/02/08 01:57:15;;;;;;;;;;;;;;;25.97;19.13;97010.91;5108473;27;19920;-79
2024/02/08 01:59:43;;;;;;;;;;;;;;;25.99;19.13;97008.41;5107975;27;19931;-80
2024/02/08 02:02:10;;;;;;;;;;;;;;;25.60;19.61;97004.53;5109282;28;19916;-80
2024/02/08 02:04:39;;;;;;;;;;;;;;;25.25;20.01;96995.63;5100055;27;19958;-80
2024/02/08 02:07:05;;;;;;;;;;;;;;;24.95;20.37;96999.34;5095296;27;19920;-79
2024/02/08 02:09:32;;;;;;;;;;;;;;;24.79;20.23;97004.47;5101302;28;19948;-80
2024/02/08 02:12:07;;;;;;;;;;;;;;;24.65;20.29;97003.78;5110583;28;19919;-80
2024/02/08 02:14:35;;;;;;;;;;;;;;;24.76;20.39;97003.41;5106129;28;19923;-80
2024/02/08 02:17:11;;;;;;;;;;;;;;;25.14;19.88;96998.13;5110101;28;19973;-80
2024/02/08 02:19:38;;;;;;;;;;;;;;;25.11;19.89;97001.13;5100322;28;19923;-80
2024/02/08 02:22:07;;;;;;;;;;;;;;;25.22;20.12;97007.03;5096139;28;19965;-81
2024/02/08 02:24:36;;;;;;;;;;;;;;;25.46;19.78;97002.41;5102451;28;19923;-80
2024/02/08 02:27:03;;;;;;;;;;;;;;;25.29;20.00;97009.53;5106513;28;19973;-80
2024/02/08 02:29:29;;;;;;;;;;;;;;;25.28;19.75;97008.75;5102007;28;19955;-80
2024/02/08 02:31:55;;;;;;;;;;;;;;;25.45;19.73;97009.25;5099325;28;19931;-80
2024/02/08 02:34:25;;;;;;;;;;;;;;;25.63;19.42;97009.25;5104815;28;19920;-80
2024/02/08 02:36:58;;;;;;;;;;;;;;;25.76;19.34;97006.25;5102734;28;19924;-80
2024/02/08 02:39:25;;;;;;;;;;;;;;;25.86;19.20;97002.16;5102405;28;19963;-80
2024/02/08 02:41:53;;;;;;;;;;;;;;;25.90;19.37;97003.59;5104706;28;19920;-82
2024/02/08 02:44:20;;;;;;;;;;;;;;;25.94;19.08;97001.38;5099810;28;19972;-81
2024/02/08 02:46:46;;;;;;;;;;;;;;;25.99;19.05;96997.94;5104172;28;19919;-81
2024/02/08 02:49:12;;;;;;;;;;;;;;;25.98;19.29;96996.38;5101196;28;20290;-80
2024/02/08 02:51:38;;;;;;;;;;;;;;;26.02;19.17;97001.84;5105945;28;20057;-81
2024/02/08 02:54:05;;;;;;;;;;;;;;;25.72;19.25;97000.03;5110977;28;19923;-81
2024/02/08 02:56:31;;;;;;;;;;;;;;;25.60;19.69;97003.78;5077169;28;19924;-81
2024/02/08 02:58:57;;;;;;;;;;;;;;;25.70;19.59;96999.69;5110996;28;20324;-81
2024/02/08 03:01:27;;;;;;;;;;;;;;;25.84;19.37;97008.28;5111580;28;20455;-81
2024/02/08 03:03:53;;;;;;;;;;;;;;;25.74;19.35;97003.16;5092022;28;20411;-80
2024/02/08 03:06:19;;;;;;;;;;;;;;;25.34;19.83;97011.75;5110633;28;19927;-80
2024/02/08 03:08:46;;;;;;;;;;;;;;;25.23;19.85;96997.34;5105982;28;19920;-80
2024/02/08 03:11:12;;;;;;;;;;;;;;;25.19;20.05;96991.91;5099887;28;19915;-81
2024/02/08 03:13:38;;;;;;;;;;;;;;;24.85;20.19;97000.63;5094281;28;19955;-80
2024/02/08 03:16:05;;;;;;;;;;;;;;;24.73;20.37;97005.09;5106976;28;19927;-80
2024/02/08 03:18:32;;;;;;;;;;;;;;;24.65;20.64;96994.59;5111484;28;20005;-80
2024/02/08 03:20:58;;;;;;;;;;;;;;;24.46;20.55;96990.16;5113176;28;19916;-80
2024/02/08 03:23:24;;;;;;;;;;;;;;;24.50;20.70;96990.81;5113535;28;19963;-81
2024/02/08 03:25:50;;;;;;;;;;;;;;;24.77;20.46;96990.91;5114527;28;20373;-80
2024/02/08 03:28:17;;;;;;;;;;;;;;;24.47;20.71;96997.34;5115582;28;19915;-81
2024/02/08 03:30:44;;;;;;;;;;;;;;;24.65;20.30;97001.00;5080134;28;20377;-80
2024/02/08 03:33:15;;;;;;;;;;;;;;;24.94;20.17;96999.84;5116771;28;19944;-80
2024/02/08 03:35:43;;;;;;;;;;;;;;;25.17;20.09;97004.84;5116746;28;19957;-81
2024/02/08 03:38:09;;;;;;;;;;;;;;;25.19;19.97;96997.53;5106927;28;19927;-81
2024/02/08 03:40:35;;;;;;;;;;;;;;;25.07;20.02;96995.63;5109185;27;19919;-80
2024/02/08 03:43:01;;;;;;;;;;;;;;;25.27;19.70;97006.44;5111529;27;19920;-80
2024/02/08 03:45:27;;;;;;;;;;;;;;;25.49;19.84;97003.47;5106507;28;19916;-81
2024/02/08 03:47:59;;;;;;;;;;;;;;;25.54;19.73;97008.47;5100097;28;19931;-81
2024/02/08 03:50:25;;;;;;;;;;;;;;;25.69;19.43;97012.22;5104457;28;19920;-80
2024/02/08 03:52:51;;;;;;;;;;;;;;;25.78;19.09;97015.00;5105859;27;19920;-81
2024/02/08 03:55:26;;;;;;;;;;;;;;;25.73;19.22;97007.19;5107894;27;20026;-80
2024/02/08 03:57:52;;;;;;;;;;;;;;;25.63;19.46;97016.88;5100515;28;19920;-80
2024/02/08 04:00:27;;;;;;;;;;;;;;;25.70;19.17;97008.91;5114326;27;19924;-80
2024/02/08 04:03:10;;;;;;;;;;;;;;;25.76;19.11;97012.69;5104274;27;20455;-80
2024/02/08 04:05:39;;;;;;;;;;;;;;;25.76;19.19;97014.69;5101239;27;20007;-80
2024/02/08 04:54:33;;;;;;;;;;;;;;;25.67;19.35;97003.47;5105377;27;20004;-79
2024/02/08 04:57:03;;;;;;;;;;;;;;;25.71;19.17;97012.50;5102312;27;20388;-78
2024/02/08 04:59:29;;;;;;;;;;;;;;;25.36;19.60;97006.41;5100017;28;19969;-78
2024/02/08 05:01:55;;;;;;;;;;;;;;;24.97;19.99;97010.91;5105672;27;19927;-78
2024/02/08 05:04:22;;;;;;;;;;;;;;;24.70;20.11;97011.63;5099390;28;19920;-78
2024/02/08 05:06:49;;;;;;;;;;;;;;;24.65;20.28;97003.00;5105016;27;20454;-78
2024/02/08 05:09:20;;;;;;;;;;;;;;;24.96;20.19;97012.16;5099034;27;20294;-78
2024/02/08 05:11:48;;;;;;;;;;;;;;;25.06;19.90;97010.94;5096561;28;20454;-78
2024/02/08 05:14:15;;;;;;;;;;;;;;;24.91;20.20;97012.78;5103937;28;20010;-78
2024/02/08 05:16:41;;;;;;;;;;;;;;;24.95;19.94;97018.25;5106807;28;19920;-78
2024/02/08 05:19:09;;;;;;;;;;;;;;;25.14;19.85;97020.59;5104469;28;19998;-78
2024/02/08 05:21:40;;;;;;;;;;;;;;;25.41;19.67;97015.00;5099559;27;19916;-78
2024/02/08 05:24:07;;;;;;;;;;;;;;;25.38;19.66;97012.34;5104553;27;20304;-79
2024/02/08 05:26:34;;;;;;;;;;;;;;;25.59;19.28;97013.47;5100159;27;19924;-79
2024/02/08 05:29:00;;;;;;;;;;;;;;;25.66;19.48;97019.56;5098134;28;19927;-78
2024/02/08 05:31:26;;;;;;;;;;;;;;;25.68;19.38;97013.44;5105647;28;19948;-79
2024/02/08 05:33:56;;;;;;;;;;;;;;;25.73;19.48;97022.03;5102421;28;19924;-79
2024/02/08 05:36:23;;;;;;;;;;;;;;;25.82;19.32;97018.44;5102812;27;19932;-79
2024/02/08 05:38:52;;;;;;;;;;;;;;;25.92;19.14;97009.50;5102056;27;19931;-79
2024/02/08 05:41:21;;;;;;;;;;;;;;;26.01;19.09;97008.69;5099698;28;19924;-79
2024/02/08 05:43:51;;;;;;;;;;;;;;;25.91;19.08;97007.94;5101527;27;19920;-78
2024/02/08 05:46:24;;;;;;;;;;;;;;;25.88;18.98;97005.31;5104451;27;20304;-78
2024/02/08 05:49:03;;;;;;;;;;;;;;;25.62;19.22;97015.34;5103916;27;19920;-78
2024/02/08 05:51:30;;;;;;;;;;;;;;;25.22;19.94;97016.25;5108079;27;20392;-78
2024/02/08 05:53:57;;;;;;;;;;;;;;;25.55;19.67;97018.47;5097397;27;19920;-78
2024/02/08 05:56:25;;;;;;;;;;;;;;;25.72;19.53;97012.03;5110470;28;19923;-79
2024/02/08 05:59:01;;;;;;;;;;;;;;;25.79;19.05;97013.78;5097014;27;19938;-79
2024/02/08 06:01:31;;;;;;;;;;;;;;;25.37;19.43;97017.19;5101610;28;19924;-80
2024/02/08 06:04:01;;;;;;;;;;;;;;;25.33;19.45;97013.75;5099995;27;19946;-81
2024/02/08 06:06:33;;;;;;;;;;;;;;;25.35;19.60;97010.47;5084545;27;20301;-80
2024/02/08 06:09:08;;;;;;;;;;;;;;;25.44;19.53;97010.50;5099941;28;19923;-79
2024/02/08 06:11:37;;;;;;;;;;;;;;;25.18;19.59;97018.41;5102308;27;19920;-79
2024/02/08 06:14:12;;;;;;;;;;;;;;;24.77;20.21;97016.19;5110822;28;19927;-79
2024/02/08 06:16:48;;;;;;;;;;;;;;;24.85;20.05;97019.47;5111436;28;19920;-79
2024/02/08 06:19:15;;;;;;;;;;;;;;;24.69;20.28;97015.66;5103780;28;20292;-79
2024/02/08 06:21:41;;;;;;;;;;;;;;;24.26;20.72;97020.66;5093458;28;20429;-79
2024/02/08 06:27:13;;;;;;;;;;;;;;;24.03;20.77;97025.50;5074359;28;19963;-79
2024/02/08 06:29:42;;;;;;;;;;;;;;;23.77;21.24;97028.91;5102294;28;19972;-79
2024/02/08 06:32:33;;;;;;;;;;;;;;;23.67;21.44;97035.69;5113799;28;20011;-79
2024/02/08 06:35:11;;;;;;;;;;;;;;;23.77;21.42;97031.72;5113384;28;19916;-79
2024/02/08 06:37:44;;;;;;;;;;;;;;;23.98;21.07;97028.91;5093451;28;20320;-78
2024/02/08 07:37:29;;;;;;;;;;;;;;;22.48;23.04;97019.75;5116638;28;20387;-79
2024/02/08 07:40:00;;;;;;;;;;;;;;;22.71;22.75;97029.06;5116560;28;20064;-78
2024/02/08 07:42:52;;;;;;;;;;;;;;;22.98;22.60;97012.53;5115867;28;20407;-79
2024/02/08 07:45:26;;;;;;;;;;;;;;;22.57;23.06;97014.25;5096796;28;19943;-79
2024/02/08 07:48:08;;;;;;;;;;;;;;;22.18;23.50;97011.94;5096584;28;20026;-79
2024/02/08 07:50:37;;;;;;;;;;;;;;;21.53;24.35;97021.84;5096252;28;19916;-79
2024/02/08 07:53:08;;;;;;;;;;;;;;;18.56;28.04;97036.81;5095443;28;20036;-79
2024/02/08 07:58:07;;;;;;;;;;;;;;;19.54;26.85;97027.84;5116686;28;20010;-79
2024/02/08 08:03:00;;;;;;;;;;;;;;;18.51;28.33;97033.72;5096752;28;19966;-79
2024/02/08 08:05:31;;;;;;;;;;;;;;;18.21;29.03;97029.00;5078574;28;19920;-79
2024/02/08 08:08:01;;;;;;;;;;;;;;;19.68;27.08;97019.22;5095377;28;20011;-79
2024/02/08 08:10:33;;;;;;;;;;;;;;;20.72;25.94;97016.44;5114551;28;19916;-79
2024/02/08 08:13:06;;;;;;;;;;;;;;;22.30;23.97;97011.16;5115735;28;19916;-79
2024/02/08 08:16:35;;;;;;;;;;;;;;;23.18;23.00;97007.41;5114207;28;19919;-79
2024/02/08 08:18:39;;;;;;;;;;;;;;;23.74;22.28;97008.19;5102770;28;19938;-79
2024/02/08 08:21:07;;;;;;;;;;;;;;;24.19;21.94;97004.88;5107017;28;19915;-79
2024/02/08 08:23:33;;;;;;;;;;;;;;;24.34;21.70;97005.09;5095375;28;19920;-79
2024/02/08 08:26:00;;;;;;;;;;;;;;;23.84;22.29;97007.00;5096302;28;19924;-79
2024/02/08 08:31:00;;;;;;;;;;;;;;;23.90;22.76;97005.16;5108755;27;20373;-78
2024/02/08 08:36:28;;;;;;;;;;;;;;;24.64;21.51;96995.84;5112648;28;19956;-79
2024/02/08 08:39:46;;;;;;;;;;;;;;;24.76;21.75;97002.59;5114841;28;20325;-78
2024/02/08 08:41:49;;;;;;;;;;;;;;;24.84;21.20;96995.44;5113831;28;20026;-78
2024/02/08 08:44:15;;;;;;;;;;;;;;;24.23;21.40;96987.91;5097409;27;19928;-78
2024/02/08 08:46:41;;;;;;;;;;;;;;;;;;5095803;27;19920;-78
2024/02/08 08:49:08;;;;;;;;;;;;;;;23.51;22.39;96989.03;5111885;27;19923;-79
2024/02/08 08:51:34;;;;;;;;;;;;;;;23.86;22.46;96975.72;5110331;28;19916;-78
2024/02/08 08:54:00;;;;;;;;;;;;;;;23.38;23.27;96962.34;5095493;28;19939;-78
2024/02/08 08:56:29;;;;;;;;;;;;;;;23.84;22.63;96967.75;5102303;28;19923;-78
2024/02/08 08:58:58;;;;;;;;;;;;;;;22.87;24.23;96973.69;5115205;28;19916;-78
2024/02/08 09:01:25;;;;;;;;;;;;;;;23.39;22.72;96984.28;5115192;28;19916;-79
2024/02/08 09:04:37;;;;;;;;;;;;;;;22.88;23.04;96983.66;5114974;28;20361;-78
2024/02/08 09:06:47;;;;;;;;;;;;;;;23.96;22.53;96980.13;5099487;28;19967;-78
2024/02/08 09:09:38;;;;;;;;;;;;;;;23.97;22.00;96976.84;5112536;28;19927;-78
2024/02/08 09:12:05;;;;;;;;;;;;;;;23.66;21.87;96969.69;5095356;28;19941;-78
2024/02/08 09:14:32;;;;;;;;;;;;;;;23.18;22.78;96980.19;5115125;28;19981;-78
2024/02/08 09:17:02;;;;;;;;;;;;;;;20.74;25.28;96982.50;5110348;28;19920;-78
2024/02/08 09:19:29;;;;;;;;;;;;;;;18.61;28.21;97002.97;5112038;28;19927;-78
2024/02/08 09:22:06;;;;;;;;;;;;;;;18.56;28.41;96999.88;5109877;27;19920;-78
2024/02/08 09:24:38;;;;;;;;;;;;;;;18.98;28.11;96996.34;5101049;28;19924;-78
2024/02/08 09:27:18;;;;;;;;;;;;;;;19.08;27.96;96995.34;5106817;27;19920;-78
2024/02/08 09:29:50;;;;;;;;;;;;;;;19.24;27.54;96989.09;5102844;27;20407;-78
2024/02/08 09:35:11;;;;;;;;;;;;;;;20.46;26.09;96990.38;5110853;28;19922;-78
2024/02/08 09:37:46;;;;;;;;;;;;;;;20.26;26.33;96989.66;5114720;28;19916;-78
2024/02/08 09:40:20;;;;;;;;;;;;;;;21.37;25.38;96985.59;5114501;28;19939;-78
2024/02/08 09:42:56;;;;;;;;;;;;;;;20.38;26.31;96986.19;5105344;28;19919;-78
2024/02/08 09:48:05;;;;;;;;;;;;;;;19.73;26.92;96990.06;5114710;28;20014;-78
2024/02/08 09:50:36;;;;;;;;;;;;;;;17.98;29.68;96994.81;5114140;28;19970;-78
2024/02/08 09:53:15;;;;;;;;;;;;;;;19.94;26.96;96975.66;5098158;28;19920;-78
2024/02/08 09:55:43;;;;;;;;;;;;;;;20.67;26.00;96970.34;5094193;28;19920;-78
2024/02/08 09:58:12;;;;;;;;;;;;;;;21.32;25.08;96951.44;5093621;28;19924;-78
2024/02/08 10:00:57;;;;;;;;;;;;;;;20.31;26.57;96947.34;5103285;28;19916;-78
2024/02/08 10:03:34;;;;;;;;;;;;;;;21.81;25.37;96942.78;5098120;28;19959;-78
2024/02/08 10:06:56;;;;;;;;;;;;;;;23.03;23.73;96934.38;5112040;28;19939;-78
2024/02/08 10:09:08;;;;;;;;;;;;;;;23.01;23.39;96936.81;5096296;28;20002;-78
2024/02/08 10:11:43;;;;;;;;;;;;;;;22.20;24.09;96936.78;5114085;28;19916;-78
2024/02/08 10:14:55;;;;;;;;;;;;;;;20.97;25.26;96932.06;5105445;28;19966;-78
2024/02/08 10:17:00;;;;;;;;;;;;;;;21.10;25.70;96925.34;5092644;28;20431;-78
2024/02/08 10:22:18;;;;;;;;;;;;;;;21.48;24.99;96928.22;5093360;28;19924;-78
2024/02/08 10:26:19;;;;;;;;;;;;;;;21.98;25.06;96919.91;5101280;28;19923;-78
2024/02/08 10:27:35;;;;;;;;;;;;;;;22.34;24.79;96915.94;5113413;28;20405;-78
2024/02/08 10:30:05;;;;;;;;;;;;;;;22.75;24.00;96920.59;5113574;28;19969;-78
2024/02/08 10:32:32;;;;;;;;;;;;;;;20.16;26.96;96918.25;5113430;28;19916;-78
2024/02/08 10:35:13;;;;;;;;;;;;;;;20.75;26.75;96923.50;5109944;28;19928;-78
2024/02/08 10:38:07;;;;;;;;;;;;;;;22.28;24.52;96912.16;5100117;28;19916;-78
2024/02/08 10:40:34;;;;;;;;;;;;;;;20.02;27.08;96888.69;5097567;28;19963;-78
2024/02/08 10:43:16;;;;;;;;;;;;;;;19.65;27.85;96891.97;5097149;28;20475;-78
2024/02/08 10:46:04;;;;;;;;;;;;;;;19.88;27.37;96883.47;5101971;28;19919;-78
2024/02/08 10:48:30;;;;;;;;;;;;;;;20.32;27.72;96889.59;5116648;28;20301;-78
2024/02/08 10:51:02;;;;;;;;;;;;;;;21.04;26.27;96885.25;5116806;28;19916;-78
2024/02/08 10:53:44;;;;;;;;;;;;;;;21.96;25.34;96890.84;5086367;28;20297;-78
2024/02/08 10:56:17;;;;;;;;;;;;;;;22.14;24.62;96895.84;5117678;28;19920;-78
2024/02/08 11:01:32;;;;;;;;;;;;;;;22.24;25.04;96889.91;5117505;28;20277;-78
2024/02/08 11:04:00;;;;;;;;;;;;;;;22.38;24.27;96881.03;5117436;28;19916;-78
2024/02/08 11:06:28;;;;;;;;;;;;;;;20.96;26.14;96880.25;5103622;28;19923;-78
2024/02/08 11:09:14;;;;;;;;;;;;;;;21.07;26.12;96867.63;5106511;27;19920;-78
2024/02/08 11:11:51;;;;;;;;;;;;;;;20.80;26.47;96869.16;5116684;28;19915;-78
2024/02/08 11:14:20;;;;;;;;;;;;;;;21.17;26.08;96854.56;5117285;28;19938;-78
2024/02/08 11:16:49;;;;;;;;;;;;;;;21.83;25.41;96851.69;5116857;28;19916;-78
2024/02/08 11:19:19;;;;;;;;;;;;;;;21.72;25.46;96847.69;5116052;28;20010;-78
2024/02/08 11:21:49;;;;;;;;;;;;;;;20.71;26.96;96844.72;5116952;28;19922;-78
2024/02/08 11:24:28;;;;;;;;;;;;;;;22.07;25.31;96834.59;5116047;28;19927;-78
2024/02/08 11:27:01;;;;;;;;;;;;;;;19.12;29.04;96836.69;5097334;28;19924;-78
2024/02/08 11:29:28;;;;;;;;;;;;;;;19.21;28.81;96834.09;5097915;28;19965;-78
2024/02/08 11:31:59;;;;;;;;;;;;;;;21.49;26.48;96825.69;5096372;28;19923;-78
2024/02/08 11:34:33;;;;;;;;;;;;;;;22.78;25.12;96827.34;5096954;28;19916;-78
2024/02/08 11:37:15;;;;;;;;;;;;;;;23.34;24.00;96826.00;5116758;28;19916;-78
2024/02/08 11:39:46;;;;;;;;;;;;;;;23.83;23.25;96837.25;5106383;28;19961;-78
2024/02/08 11:42:16;;;;;;;;;;;;;;;23.54;23.51;96839.63;5107492;28;19920;-78
2024/02/08 11:44:43;;;;;;;;;;;;;;;22.02;25.00;96847.91;5096525;28;20513;-78
2024/02/08 11:47:19;;;;;;;;;;;;;;;22.50;24.86;96838.25;5095187;28;19916;-78
2024/02/08 11:50:00;;;;;;;;;;;;;;;19.65;28.37;96841.84;5096175;28;20422;-78
2024/02/08 11:52:29;;;;;;;;;;;;;;;20.39;27.25;96840.03;5095659;28;19927;-78
2024/02/08 11:55:20;;;;;;;;;;;;;;;20.52;27.28;96835.28;5110291;28;19931;-78
2024/02/08 11:57:47;;;;;;;;;;;;;;;18.65;29.90;96836.09;5098743;28;19916;-78
2024/02/08 12:00:16;;;;;;;;;;;;;;;19.15;29.03;96831.06;5111456;28;20052;-78
2024/02/08 12:02:47;;;;;;;;;;;;;;;20.16;27.73;96826.28;5114853;28;20004;-78
2024/02/08 12:05:17;;;;;;;;;;;;;;;21.87;26.39;96818.06;5116393;28;19927;-78
2024/02/08 12:07:46;;;;;;;;;;;;;;;21.53;26.18;96804.00;5112700;28;19920;-78
2024/02/08 12:10:14;;;;;;;;;;;;;;;23.34;24.55;96792.38;5112383;28;20329;-78
2024/02/08 12:12:44;;;;;;;;;;;;;;;24.16;23.44;96783.44;5114108;27;19989;-78
2024/02/08 12:15:11;;;;;;;;;;;;;;;24.07;23.55;96772.22;5114978;28;19915;-78
2024/02/08 12:17:40;;;;;;;;;;;;;;;24.16;23.74;96770.22;5095846;28;20289;-78
2024/02/08 12:20:10;;;;;;;;;;;;;;;22.99;24.67;96756.53;5095521;28;19916;-78
2024/02/08 12:22:36;;;;;;;;;;;;;;;22.40;25.28;96769.53;5096376;28;20404;-78
2024/02/08 12:25:07;;;;;;;;;;;;;;;23.19;24.89;96762.56;5095913;28;20007;-78
2024/02/08 12:27:34;;;;;;;;;;;;;;;22.45;25.58;96768.16;5095454;28;19950;-78
2024/02/08 12:30:01;;;;;;;;;;;;;;;20.42;28.01;96782.59;5095165;28;19916;-78
2024/02/08 12:32:28;;;;;;;;;;;;;;;19.09;29.68;96781.94;5098157;28;19967;-78
2024/02/08 12:34:54;;;;;;;;;;;;;;;21.81;26.13;96783.53;5107222;27;19931;-78
2024/02/08 12:37:29;;;;;;;;;;;;;;;21.08;27.06;96765.91;5106694;28;20022;-78
2024/02/08 12:39:55;;;;;;;;;;;;;;;20.27;28.43;96759.91;5110721;27;20019;-78
2024/02/08 12:42:23;;;;;;;;;;;;;;;21.73;25.98;96771.00;5115446;28;19968;-78
2024/02/08 12:44:50;;;;;;;;;;;;;;;20.13;28.47;96765.84;5113633;28;19920;-78
2024/02/08 12:47:17;;;;;;;;;;;;;;;19.94;28.33;96763.97;5095245;28;19916;-78
2024/02/08 12:49:46;;;;;;;;;;;;;;;19.98;28.01;96757.06;5099573;28;19924;-78
2024/02/08 12:52:15;;;;;;;;;;;;;;;21.16;27.16;96755.31;5101680;28;20326;-78
2024/02/08 12:54:42;;;;;;;;;;;;;;;19.20;29.41;96768.56;5115307;28;19927;-78
2024/02/08 12:57:10;;;;;;;;;;;;;;;18.61;30.70;96758.34;5115123;28;19973;-78
2024/02/08 12:59:41;;;;;;;;;;;;;;;17.96;31.58;96759.22;5111467;27;20439;-78
2024/02/08 13:02:16;;;;;;;;;;;;;;;19.51;29.74;96755.13;5095028;28;20256;-78
2024/02/08 13:04:48;;;;;;;;;;;;;;;20.02;27.93;96750.63;5094912;28;19999;-78
2024/02/08 13:07:15;;;;;;;;;;;;;;;20.73;27.36;96753.00;5104218;28;19912;-78
2024/02/08 13:09:43;;;;;;;;;;;;;;;21.41;26.55;96743.34;5114123;28;20015;-78
2024/02/08 13:12:22;;;;;;;;;;;;;;;21.55;26.41;96742.91;5104246;28;19923;-78
2024/02/08 13:14:48;;;;;;;;;;;;;;;20.38;27.63;96737.31;5104315;28;20442;-78
2024/02/08 13:17:19;;;;;;;;;;;;;;;21.85;26.16;96742.31;5108463;28;19965;-78
2024/02/08 13:19:45;;;;;;;;;;;;;;;22.87;24.73;96740.63;5114644;28;19923;-78
2024/02/08 13:22:11;;;;;;;;;;;;;;;21.50;26.41;96743.44;5114526;28;19922;-78
2024/02/08 13:24:37;;;;;;;;;;;;;;;21.34;26.60;96742.38;5102711;28;20010;-78
2024/02/08 13:27:04;;;;;;;;;;;;;;;21.34;26.51;96745.16;5095925;28;19928;-77
2024/02/08 13:29:30;;;;;;;;;;;;;;;19.06;29.80;96733.50;5100620;28;19920;-78
2024/02/08 13:31:57;;;;;;;;;;;;;;;21.05;27.11;96738.91;5108204;28;19920;-78
2024/02/08 13:34:23;;;;;;;;;;;;;;;21.63;26.12;96731.06;5094596;28;19920;-78
2024/02/08 13:36:49;;;;;;;;;;;;;;;22.14;25.83;96714.94;5105620;28;19968;-78
2024/02/08 13:39:15;;;;;;;;;;;;;;;22.72;24.99;96718.00;5114468;28;20003;-78
2024/02/08 13:41:46;;;;;;;;;;;;;;;22.93;24.38;96716.41;5113310;28;19916;-78
2024/02/08 13:44:16;;;;;;;;;;;;;;;22.75;24.62;96713.50;5111904;28;19920;-78
2024/02/08 13:46:42;;;;;;;;;;;;;;;23.44;23.84;96706.38;5096221;28;19965;-78
2024/02/08 13:49:08;;;;;;;;;;;;;;;23.46;24.03;96706.69;5097542;28;19920;-78
2024/02/08 13:51:34;;;;;;;;;;;;;;;23.22;24.31;96703.63;5093582;28;19923;-78
2024/02/08 13:54:01;;;;;;;;;;;;;;;23.03;24.38;96701.22;5076441;28;19916;-78
2024/02/08 13:56:27;;;;;;;;;;;;;;;22.65;25.25;96693.88;5099975;28;19924;-78
2024/02/08 13:59:00;;;;;;;;;;;;;;;21.58;26.07;96708.50;5099755;28;19924;-78
2024/02/08 14:01:26;;;;;;;;;;;;;;;22.77;25.05;96700.63;5107184;28;19927;-78
2024/02/08 14:03:56;;;;;;;;;;;;;;;22.95;24.40;96695.13;5114113;28;19923;-78
2024/02/08 14:06:22;;;;;;;;;;;;;;;22.10;25.60;96696.72;5106642;28;19920;-78
2024/02/08 14:08:53;;;;;;;;;;;;;;;22.16;25.33;96701.28;5094407;28;19994;-78
2024/02/08 14:11:21;;;;;;;;;;;;;;;21.70;26.15;96704.88;5089499;28;19989;-78
2024/02/08 14:13:50;;;;;;;;;;;;;;;22.60;25.02;96694.47;5093753;28;19916;-78
2024/02/08 14:16:21;;;;;;;;;;;;;;;21.22;26.45;96697.69;5094137;28;19926;-78
2024/02/08 14:18:52;;;;;;;;;;;;;;;18.67;30.17;96693.91;5112813;28;19924;-78
2024/02/08 14:21:25;;;;;;;;;;;;;;;19.51;29.18;96694.66;5114154;28;20301;-78
2024/02/08 14:23:59;;;;;;;;;;;;;;;20.54;27.66;96700.97;5106472;28;19960;-78
2024/02/08 14:26:36;;;;;;;;;;;;;;;20.34;28.13;96698.41;5094368;28;19965;-78
2024/02/08 14:29:05;;;;;;;;;;;;;;;21.07;27.02;96686.25;5110671;28;19965;-78
2024/02/08 14:31:35;;;;;;;;;;;;;;;20.91;27.21;96696.69;5108359;28;20360;-78
2024/02/08 14:34:02;;;;;;;;;;;;;;;21.85;26.11;96690.00;5094010;28;19920;-78
2024/02/08 14:36:29;;;;;;;;;;;;;;;22.32;25.51;96700.31;5093323;28;20370;-79
2024/02/08 14:38:55;;;;;;;;;;;;;;;20.38;27.88;96704.63;5098006;28;19923;-78
2024/02/08 14:41:33;;;;;;;;;;;;;;;21.05;27.01;96708.19;5093248;28;19927;-78
2024/02/08 14:44:16;;;;;;;;;;;;;;;22.65;25.05;96693.88;5105591;28;19955;-78
2024/02/08 14:46:46;;;;;;;;;;;;;;;22.95;24.56;96681.13;5098825;28;19924;-78
2024/02/08 14:49:22;;;;;;;;;;;;;;;23.28;24.42;96676.59;5098220;28;19970;-79
2024/02/08 14:51:50;;;;;;;;;;;;;;;23.80;23.64;96670.03;5100072;28;19920;-78
2024/02/08 14:54:19;;;;;;;;;;;;;;;23.67;23.76;96672.16;5104299;28;20035;-78
2024/02/08 14:56:46;;;;;;;;;;;;;;;23.32;24.05;96668.03;5111894;28;19984;-78
2024/02/08 14:59:13;;;;;;;;;;;;;;;23.74;23.89;96671.06;5093517;28;19923;-78
2024/02/08 15:01:41;;;;;;;;;;;;;;;24.27;23.16;96677.97;5103326;28;20376;-79
2024/02/08 15:04:21;;;;;;;;;;;;;;;24.47;22.92;96675.47;5100049;28;19919;-80
2024/02/08 15:12:10;;;;;;;;;;;;;;;23.12;24.25;96674.03;5100763;28;19920;-79
2024/02/08 15:14:37;;;;;;;;;;;;;;;23.54;23.93;96671.53;5093403;28;20296;-80
2024/02/08 15:20:36;;;;;;;;;;;;;;;22.55;24.97;96663.47;5092947;28;20345;-80